createdAt,value
2023-03-06T00:00:04.401Z,28.47
2023-03-06T00:02:32.383Z,27.83
2023-03-06T00:05:00.328Z,28.50
2023-03-06T00:07:29.700Z,27.33
2023-03-06T00:09:57.609Z,24.43
2023-03-06T00:12:27.674Z,27.93
2023-03-06T00:14:55.650Z,27.53
2023-03-06T00:17:23.661Z,24.87
2023-03-06T00:19:51.591Z,30.80
2023-03-06T00:22:19.508Z,24.83
2023-03-06T00:24:48.844Z,25.70
2023-03-06T00:27:16.740Z,22.47
2023-03-06T00:29:45.040Z,25.13
2023-03-06T00:32:13.014Z,25.77
2023-03-06T00:34:40.902Z,25.43
2023-03-06T00:37:08.817Z,33.60
2023-03-06T00:39:37.129Z,29.00
2023-03-06T00:42:06.919Z,31.03
2023-03-06T00:44:34.778Z,28.17
2023-03-06T00:47:02.773Z,32.07
2023-03-06T00:49:30.659Z,31.07
2023-03-06T00:51:58.575Z,30.03
2023-03-06T00:54:26.533Z,26.77
2023-03-06T00:56:54.481Z,30.97
2023-03-06T00:59:23.808Z,31.17
2023-03-06T01:01:51.737Z,31.30
2023-03-06T01:04:19.653Z,26.33
2023-03-06T01:06:47.668Z,30.50
2023-03-06T01:09:15.620Z,26.03
2023-03-06T01:11:43.664Z,33.00
2023-03-06T01:14:11.639Z,25.17
2023-03-06T01:16:40.984Z,28.17
2023-03-06T01:19:08.952Z,26.70
2023-03-06T01:21:36.862Z,22.33
2023-03-06T01:24:04.859Z,26.53
2023-03-06T01:26:33.686Z,21.50
2023-03-06T01:29:01.702Z,28.13
2023-03-06T01:31:29.894Z,24.97
2023-03-06T01:33:59.402Z,23.57
2023-03-06T01:36:27.296Z,23.27
2023-03-06T01:38:55.194Z,26.43
2023-03-06T01:41:23.136Z,24.33
2023-03-06T01:43:51.347Z,24.60
2023-03-06T01:46:24.985Z,17.83
2023-03-06T01:48:55.002Z,22.30
2023-03-06T01:51:25.843Z,22.63
2023-03-06T01:53:54.616Z,19.40
2023-03-06T01:56:23.135Z,14.97
2023-03-06T01:58:51.469Z,19.00
2023-03-06T02:01:20.453Z,17.87
2023-03-06T02:03:50.144Z,15.17
2023-03-06T02:06:21.904Z,16.90
2023-03-06T02:08:52.602Z,16.20
2023-03-06T02:11:21.611Z,17.90
2023-03-06T02:13:50.735Z,17.97
2023-03-06T02:16:19.177Z,19.10
2023-03-06T02:18:47.471Z,20.17
2023-03-06T02:21:20.503Z,17.33
2023-03-06T02:23:52.829Z,16.50
2023-03-06T02:26:25.215Z,17.30
2023-03-06T02:28:53.375Z,17.43
2023-03-06T02:31:22.633Z,17.50
2023-03-06T02:34:02.187Z,17.40
2023-03-06T02:36:31.137Z,18.90
2023-03-06T02:39:00.130Z,19.60
2023-03-06T02:41:32.778Z,16.67
2023-03-06T02:44:01.029Z,20.13
2023-03-06T02:46:29.091Z,21.27
2023-03-06T02:48:57.059Z,16.33
2023-03-06T02:51:25.091Z,15.83
2023-03-06T02:53:53.086Z,15.53
2023-03-06T02:56:21.092Z,19.50
2023-03-06T02:58:50.497Z,14.17
2023-03-06T03:01:18.454Z,14.60
2023-03-06T03:03:46.419Z,18.20
2023-03-06T03:06:14.428Z,15.23
2023-03-06T03:08:44.563Z,20.27
2023-03-06T03:11:12.667Z,16.93
2023-03-06T03:13:40.650Z,17.73
2023-03-06T03:16:11.109Z,17.10
2023-03-06T03:18:39.517Z,13.13
2023-03-06T03:21:08.866Z,16.33
2023-03-06T03:23:36.773Z,14.87
2023-03-06T03:26:08.278Z,18.30
2023-03-06T03:28:36.212Z,17.63
2023-03-06T03:31:04.843Z,14.60
2023-03-06T03:33:34.406Z,18.17
2023-03-06T03:36:03.149Z,26.60
2023-03-06T03:38:31.456Z,19.70
2023-03-06T03:40:59.364Z,17.00
2023-03-06T03:43:27.403Z,16.80
2023-03-06T03:45:55.410Z,14.57
2023-03-06T03:48:23.316Z,13.93
2023-03-06T03:50:52.639Z,14.53
2023-03-06T03:53:20.605Z,15.97
2023-03-06T03:55:49.279Z,17.60
2023-03-06T03:58:17.183Z,18.90
2023-03-06T04:00:45.148Z,16.43
2023-03-06T04:03:13.048Z,16.67
2023-03-06T04:05:40.969Z,19.77
2023-03-06T04:08:10.404Z,11.47
2023-03-06T04:10:39.576Z,14.63
2023-03-06T04:13:09.905Z,14.90
2023-03-06T04:15:38.097Z,19.47
2023-03-06T04:18:06.275Z,19.77
2023-03-06T04:20:34.230Z,22.57
2023-03-06T04:23:02.209Z,22.20
2023-03-06T04:25:31.552Z,20.47
2023-03-06T04:28:01.079Z,20.03
2023-03-06T04:30:29.011Z,18.17
2023-03-06T04:32:57.010Z,20.93
2023-03-06T04:35:24.948Z,19.23
2023-03-06T04:37:52.870Z,25.57
2023-03-06T04:40:21.904Z,28.13
2023-03-06T04:42:51.305Z,27.03
2023-03-06T04:45:19.181Z,24.37
2023-03-06T04:47:47.116Z,23.63
2023-03-06T04:50:15.110Z,33.10
2023-03-06T04:52:43.066Z,26.17
2023-03-06T04:55:11.920Z,29.13
2023-03-06T04:57:40.673Z,27.53
2023-03-06T05:00:11.245Z,24.17
2023-03-06T05:02:39.127Z,32.43
2023-03-06T05:05:07.505Z,25.90
2023-03-06T05:07:35.424Z,27.93
2023-03-06T05:10:03.336Z,30.00
2023-03-06T05:12:31.249Z,31.83
2023-03-06T05:14:59.271Z,34.33
2023-03-06T05:17:28.651Z,31.77
2023-03-06T05:19:56.589Z,26.33
2023-03-06T05:22:24.457Z,28.93
2023-03-06T05:24:52.533Z,27.13
2023-03-06T05:27:20.517Z,33.90
2023-03-06T05:29:48.449Z,28.47
2023-03-06T05:32:17.221Z,26.67
2023-03-06T05:34:46.567Z,23.70
2023-03-06T05:37:14.492Z,28.63
2023-03-06T05:39:42.721Z,27.30
2023-03-06T05:42:10.747Z,24.23
2023-03-06T05:44:38.693Z,30.33
2023-03-06T05:47:06.765Z,26.70
2023-03-06T05:49:35.128Z,26.93
2023-03-06T05:52:05.517Z,26.20
2023-03-06T05:54:33.810Z,27.73
2023-03-06T05:57:02.141Z,29.77
2023-03-06T05:59:30.107Z,27.73
2023-03-06T06:01:58.537Z,28.13
2023-03-06T06:04:27.379Z,30.63
2023-03-06T06:06:55.641Z,26.73
2023-03-06T06:09:25.313Z,25.20
2023-03-06T06:11:53.729Z,22.23
2023-03-06T06:14:21.936Z,22.60
2023-03-06T06:16:49.941Z,24.13
2023-03-06T06:19:20.421Z,18.63
2023-03-06T06:21:48.920Z,25.73
2023-03-06T06:24:17.422Z,22.87
2023-03-06T06:26:47.098Z,20.50
2023-03-06T06:29:14.996Z,27.47
2023-03-06T06:31:42.957Z,23.20
2023-03-06T06:34:12.309Z,25.60
2023-03-06T06:36:40.396Z,23.33
2023-03-06T06:39:09.242Z,21.60
2023-03-06T06:41:57.018Z,27.30
2023-03-06T06:44:26.854Z,26.53
2023-03-06T06:47:22.336Z,31.70
2023-03-06T06:49:43.089Z,30.87
2023-03-06T06:52:11.867Z,27.73
2023-03-06T06:54:39.806Z,40.73
2023-03-06T06:57:07.823Z,32.03
2023-03-06T06:59:37.144Z,28.33
2023-03-06T07:02:06.114Z,31.63
2023-03-06T07:04:34.097Z,30.40
2023-03-06T07:07:02.399Z,25.77
2023-03-06T07:09:31.537Z,27.63
2023-03-06T07:12:01.392Z,30.37
2023-03-06T07:14:29.440Z,29.57
2023-03-06T07:17:01.313Z,24.73
2023-03-06T07:19:29.491Z,22.40
2023-03-06T07:21:57.417Z,24.23
2023-03-06T07:24:25.386Z,23.20
2023-03-06T07:26:53.508Z,24.10
2023-03-06T07:29:21.473Z,29.87
2023-03-06T07:31:49.382Z,20.43
2023-03-06T07:34:18.849Z,32.20
2023-03-06T07:36:47.038Z,31.23
2023-03-06T07:39:14.991Z,24.07
2023-03-06T07:41:42.914Z,24.60
2023-03-06T07:44:10.859Z,25.03
2023-03-06T07:46:38.851Z,18.87
2023-03-06T07:49:06.820Z,22.23
2023-03-06T07:51:36.221Z,24.60
2023-03-06T07:54:04.186Z,25.07
2023-03-06T07:56:32.218Z,21.73
2023-03-06T07:59:00.145Z,21.50
2023-03-06T08:01:28.162Z,21.10
2023-03-06T08:03:56.283Z,20.90
2023-03-06T08:06:25.616Z,22.93
2023-03-06T08:08:55.735Z,25.73
2023-03-06T08:11:25.308Z,20.83
2023-03-06T08:13:53.813Z,20.40
2023-03-06T08:16:22.392Z,23.73
2023-03-06T08:18:50.363Z,22.17
2023-03-06T08:21:19.426Z,23.33
2023-03-06T08:23:48.049Z,22.27
2023-03-06T08:26:18.609Z,25.37
2023-03-06T08:28:46.552Z,19.67
2023-03-06T08:31:15.364Z,22.63
2023-03-06T08:33:43.311Z,21.03
2023-03-06T08:36:11.361Z,22.63
2023-03-06T08:38:39.254Z,21.30
2023-03-06T08:41:07.225Z,23.60
2023-03-06T08:43:36.568Z,19.93
2023-03-06T08:46:04.923Z,22.40
2023-03-06T08:48:33.028Z,24.27
2023-03-06T08:51:02.026Z,23.47
2023-03-06T08:53:42.015Z,19.33
2023-03-06T08:56:16.220Z,23.43
2023-03-06T08:58:45.523Z,17.83
2023-03-06T09:01:16.903Z,20.20
2023-03-06T09:03:44.871Z,21.37
2023-03-06T09:06:13.246Z,18.80
2023-03-06T09:08:43.333Z,18.10
2023-03-06T09:11:11.790Z,21.13
2023-03-06T09:13:40.038Z,20.10
2023-03-06T09:16:10.073Z,26.33
2023-03-06T09:18:38.445Z,22.07
2023-03-06T09:21:06.823Z,67.93
2023-03-06T09:23:34.959Z,24.30
2023-03-06T09:26:03.178Z,17.73
2023-03-06T09:28:36.205Z,20.97
2023-03-06T09:31:10.041Z,19.33
2023-03-06T09:33:41.029Z,19.80
2023-03-06T09:36:09.502Z,17.17
2023-03-06T09:38:37.424Z,20.70
2023-03-06T09:43:36.759Z,16.53
2023-03-06T09:46:14.737Z,19.83
2023-03-06T09:48:47.271Z,19.30
2023-03-06T09:51:16.732Z,25.33
2023-03-06T09:53:56.941Z,19.87
2023-03-06T09:56:31.212Z,15.67
2023-03-06T09:59:02.414Z,24.40
2023-03-06T10:01:33.199Z,20.20
2023-03-06T10:04:06.541Z,20.93
2023-03-06T10:06:35.756Z,18.97
2023-03-06T10:09:05.831Z,21.53
2023-03-06T10:11:37.207Z,21.13
2023-03-06T10:14:19.742Z,18.93
2023-03-06T10:16:49.105Z,15.40
2023-03-06T10:19:18.277Z,17.17
2023-03-06T10:21:48.608Z,25.27
2023-03-06T10:24:22.499Z,13.33
2023-03-06T10:26:53.800Z,23.17
2023-03-06T10:29:27.421Z,22.17
2023-03-06T10:32:00.340Z,19.17
2023-03-06T10:34:30.423Z,18.00
2023-03-06T10:36:59.706Z,18.50
2023-03-06T10:39:28.533Z,17.50
2023-03-06T10:41:56.875Z,19.23
2023-03-06T10:44:25.253Z,19.77
2023-03-06T10:46:54.485Z,18.07
2023-03-06T10:49:30.952Z,18.27
2023-03-06T10:52:00.284Z,18.30
2023-03-06T10:54:31.162Z,20.93
2023-03-06T10:56:59.094Z,25.43
2023-03-06T10:59:28.618Z,17.93
2023-03-06T11:01:57.225Z,24.07
2023-03-06T11:04:28.287Z,21.60
2023-03-06T11:07:09.645Z,18.23
2023-03-06T11:09:38.050Z,21.97
2023-03-06T11:12:20.705Z,16.97
2023-03-06T11:14:48.692Z,23.40
2023-03-06T11:17:27.888Z,21.80
2023-03-06T11:20:11.061Z,23.20
2023-03-06T11:22:41.370Z,24.23
2023-03-06T11:25:11.639Z,21.50
2023-03-06T11:27:42.801Z,22.67
2023-03-06T11:30:17.688Z,20.53
2023-03-06T11:32:47.387Z,22.23
2023-03-06T11:35:17.928Z,24.27
2023-03-06T11:37:51.414Z,19.80
2023-03-06T11:40:22.032Z,20.13
2023-03-06T11:42:53.001Z,22.70
2023-03-06T11:45:25.293Z,17.87
2023-03-06T11:47:55.605Z,18.77
2023-03-06T11:50:26.208Z,21.27
2023-03-06T11:52:58.809Z,19.93
2023-03-06T11:55:31.718Z,18.83
2023-03-06T11:58:05.752Z,18.17
2023-03-06T12:00:43.677Z,19.87
2023-03-06T12:03:21.217Z,23.10
2023-03-06T12:05:50.373Z,20.67
2023-03-06T12:08:28.892Z,23.03
2023-03-06T12:11:00.920Z,17.63
2023-03-06T12:16:26.085Z,23.03
2023-03-06T12:18:56.352Z,20.60
2023-03-06T12:21:28.682Z,21.57
2023-03-06T12:24:17.321Z,19.47
2023-03-06T12:26:51.976Z,16.67
2023-03-06T12:29:29.350Z,20.20
2023-03-06T12:32:02.001Z,20.60
2023-03-06T12:34:47.913Z,15.63
2023-03-06T12:37:20.240Z,18.43
2023-03-06T12:39:55.121Z,17.03
2023-03-06T12:42:31.958Z,16.17
2023-03-06T12:45:08.194Z,21.60
2023-03-06T12:47:40.886Z,16.13
2023-03-06T12:50:15.062Z,17.67
2023-03-06T12:52:43.283Z,27.40
2023-03-06T12:55:15.423Z,22.00
2023-03-06T12:57:44.800Z,21.17
2023-03-06T13:00:34.355Z,17.67
2023-03-06T13:03:07.794Z,17.20
2023-03-06T13:05:43.557Z,17.07
2023-03-06T13:08:23.427Z,19.33
2023-03-06T13:11:05.129Z,19.73
2023-03-06T13:13:35.594Z,15.33
2023-03-06T13:16:11.306Z,17.90
2023-03-06T13:18:56.758Z,13.63
2023-03-06T13:21:43.061Z,17.30
2023-03-06T13:24:16.249Z,15.47
2023-03-06T13:26:51.781Z,14.43
2023-03-06T13:29:38.458Z,21.57
2023-03-06T13:32:15.849Z,14.80
2023-03-06T13:34:47.007Z,15.87
2023-03-06T13:37:33.377Z,15.33
2023-03-06T13:40:20.062Z,14.27
2023-03-06T13:43:06.744Z,14.80
2023-03-06T13:45:35.790Z,14.57
2023-03-06T13:48:33.407Z,14.93
2023-03-06T13:50:55.707Z,11.27
2023-03-06T13:53:38.935Z,18.50
2023-03-06T13:56:11.959Z,17.83
2023-03-06T13:58:46.247Z,16.23
2023-03-06T14:01:19.682Z,15.70
2023-03-06T14:03:58.614Z,18.63
2023-03-06T14:06:43.072Z,15.47
2023-03-06T14:09:17.005Z,19.77
2023-03-06T14:11:49.069Z,15.97
2023-03-06T14:14:18.631Z,20.33
2023-03-06T14:16:50.836Z,15.67
2023-03-06T14:19:20.959Z,14.40
2023-03-06T14:21:50.391Z,16.07
2023-03-06T14:24:19.735Z,14.90
2023-03-06T14:26:49.902Z,14.70
2023-03-06T14:29:22.203Z,14.77
2023-03-06T14:31:50.657Z,14.30
2023-03-06T14:34:22.505Z,19.63
2023-03-06T14:36:51.121Z,16.83
2023-03-06T14:39:21.420Z,15.13
2023-03-06T14:41:49.322Z,17.20
2023-03-06T14:44:19.430Z,18.53
2023-03-06T14:46:48.253Z,19.97
2023-03-06T14:49:16.544Z,19.13
2023-03-06T14:51:47.117Z,18.57
2023-03-06T14:54:17.410Z,20.23
2023-03-06T14:56:46.224Z,18.40
2023-03-06T14:59:16.569Z,19.20
2023-03-06T15:01:46.318Z,21.47
2023-03-06T15:04:20.468Z,17.10
2023-03-06T15:06:50.041Z,17.07
2023-03-06T15:09:20.556Z,15.87
2023-03-06T15:11:59.054Z,16.47
2023-03-06T15:14:31.974Z,23.63
2023-03-06T15:17:14.687Z,15.53
2023-03-06T15:19:42.651Z,13.47
2023-03-06T15:22:21.443Z,17.83
2023-03-06T15:24:49.398Z,17.27
2023-03-06T15:27:18.951Z,16.03
2023-03-06T15:29:46.859Z,18.13
2023-03-06T15:32:16.530Z,18.67
2023-03-06T15:34:44.587Z,14.13
2023-03-06T15:37:32.274Z,14.60
2023-03-06T15:40:09.565Z,17.50
2023-03-06T15:42:37.675Z,15.37
2023-03-06T15:45:15.998Z,13.57
2023-03-06T15:47:44.886Z,16.63
2023-03-06T15:50:17.249Z,18.07
2023-03-06T15:52:45.275Z,17.13
2023-03-06T15:55:15.240Z,18.47
2023-03-06T15:57:45.106Z,15.80
2023-03-06T16:00:26.960Z,17.47
2023-03-06T16:02:56.078Z,16.50
2023-03-06T16:05:24.061Z,16.83
2023-03-06T16:07:52.031Z,14.07
2023-03-06T16:10:22.809Z,16.90
2023-03-06T16:12:51.918Z,15.97
2023-03-06T16:15:21.069Z,15.50
2023-03-06T16:17:49.608Z,17.37
2023-03-06T16:20:18.709Z,14.13
2023-03-06T16:22:47.264Z,16.53
2023-03-06T16:25:15.685Z,11.57
2023-03-06T16:27:47.354Z,16.93
2023-03-06T16:30:17.731Z,15.87
2023-03-06T16:32:46.479Z,17.00
2023-03-06T16:35:14.838Z,13.10
2023-03-06T16:37:42.970Z,18.33
2023-03-06T16:40:16.644Z,15.03
2023-03-06T16:42:46.057Z,13.00
2023-03-06T16:45:14.236Z,14.37
2023-03-06T16:47:42.246Z,14.37
2023-03-06T16:50:18.125Z,11.80
2023-03-06T16:52:46.072Z,12.17
2023-03-06T16:55:14.111Z,12.57
2023-03-06T16:57:42.050Z,10.40
2023-03-06T17:00:12.594Z,11.17
2023-03-06T17:02:40.934Z,14.57
2023-03-06T17:05:09.445Z,11.67
2023-03-06T17:07:37.909Z,12.13
2023-03-06T17:10:06.155Z,12.27
2023-03-06T17:12:34.246Z,12.93
2023-03-06T17:15:02.188Z,8.93
2023-03-06T17:17:31.550Z,11.33
2023-03-06T17:19:59.953Z,9.47
2023-03-06T17:22:28.024Z,12.33
2023-03-06T17:24:55.988Z,12.03
2023-03-06T17:27:24.178Z,9.57
2023-03-06T17:29:52.205Z,9.83
2023-03-06T17:32:20.239Z,12.97
2023-03-06T17:34:49.641Z,10.93
2023-03-06T17:37:17.637Z,11.50
2023-03-06T17:39:45.624Z,9.57
2023-03-06T17:42:13.652Z,13.97
2023-03-06T17:44:41.624Z,11.20
2023-03-06T17:47:09.570Z,12.60
2023-03-06T17:49:37.546Z,7.77
2023-03-06T17:52:07.189Z,10.43
2023-03-06T17:54:35.322Z,10.43
2023-03-06T17:57:05.842Z,10.47
2023-03-06T17:59:35.281Z,10.57
2023-03-06T18:02:03.405Z,14.80
2023-03-06T18:04:34.090Z,14.43
2023-03-06T18:07:02.030Z,13.23
2023-03-06T18:09:31.434Z,11.13
2023-03-06T18:12:02.418Z,10.37
2023-03-06T18:14:30.423Z,9.97
2023-03-06T18:17:00.919Z,10.73
2023-03-06T18:19:31.146Z,11.43
2023-03-06T18:21:59.163Z,10.03
2023-03-06T18:24:27.284Z,11.80
2023-03-06T18:26:56.586Z,9.03
2023-03-06T18:29:24.549Z,9.23
2023-03-06T18:31:53.404Z,9.93
2023-03-06T18:34:21.317Z,7.83
2023-03-06T18:36:51.708Z,9.50
2023-03-06T18:39:21.505Z,7.27
2023-03-06T18:41:49.972Z,8.17
2023-03-06T18:44:19.478Z,14.20
2023-03-06T18:46:47.394Z,10.57
2023-03-06T18:49:16.264Z,11.83
2023-03-06T18:51:44.232Z,11.77
2023-03-06T18:54:12.200Z,9.80
2023-03-06T18:56:44.202Z,11.87
2023-03-06T18:59:13.744Z,14.00
2023-03-06T19:01:45.317Z,12.53
2023-03-06T19:04:13.600Z,11.67
2023-03-06T19:06:41.833Z,10.47
2023-03-06T19:09:11.476Z,9.53
2023-03-06T19:11:39.414Z,10.80
2023-03-06T19:14:07.691Z,9.63
2023-03-06T19:16:35.674Z,10.20
2023-03-06T19:19:05.000Z,9.77
2023-03-06T19:21:32.993Z,14.70
2023-03-06T19:24:00.902Z,9.30
2023-03-06T19:26:29.157Z,10.00
2023-03-06T19:28:57.282Z,10.47
2023-03-06T19:31:26.201Z,10.13
2023-03-06T19:33:54.450Z,9.60
2023-03-06T19:36:27.671Z,10.17
2023-03-06T19:38:56.256Z,9.20
2023-03-06T19:41:24.301Z,9.73
2023-03-06T19:43:53.839Z,16.53
2023-03-06T19:46:22.180Z,11.43
2023-03-06T19:48:50.254Z,11.07
2023-03-06T19:51:18.128Z,9.33
2023-03-06T19:53:47.468Z,9.67
2023-03-06T19:56:17.511Z,9.60
2023-03-06T19:58:45.387Z,12.30
2023-03-06T20:01:14.201Z,10.13
2023-03-06T20:03:42.453Z,7.70
2023-03-06T20:06:14.394Z,9.87
2023-03-06T20:08:42.421Z,8.63
2023-03-06T20:11:17.594Z,12.70
2023-03-06T20:13:47.336Z,9.57
2023-03-06T20:16:15.668Z,10.83
2023-03-06T20:18:43.743Z,11.17
2023-03-06T20:21:11.735Z,9.73
2023-03-06T20:23:39.692Z,9.40
2023-03-06T20:26:09.629Z,15.73
2023-03-06T20:28:39.495Z,12.90
2023-03-06T20:31:08.109Z,11.80
2023-03-06T20:33:36.271Z,12.87
2023-03-06T20:36:04.971Z,10.53
2023-03-06T20:38:32.976Z,10.93
2023-03-06T20:41:03.195Z,10.83
2023-03-06T20:43:31.502Z,11.13
2023-03-06T20:46:02.736Z,10.70
2023-03-06T20:48:30.988Z,13.13
2023-03-06T20:51:02.734Z,13.87
2023-03-06T20:53:30.739Z,10.00
2023-03-06T20:55:58.823Z,11.93
2023-03-06T20:58:28.865Z,10.70
2023-03-06T21:00:56.899Z,11.43
2023-03-06T21:03:26.434Z,13.13
2023-03-06T21:05:54.331Z,12.13
2023-03-06T21:08:22.262Z,10.27
2023-03-06T21:10:50.539Z,12.13
2023-03-06T21:13:18.630Z,12.47
2023-03-06T21:15:47.765Z,13.43
2023-03-06T21:18:15.696Z,13.77
2023-03-06T21:20:44.992Z,13.57
2023-03-06T21:23:12.902Z,13.87
2023-03-06T21:25:47.678Z,16.97
2023-03-06T21:28:15.643Z,10.57
2023-03-06T21:30:43.555Z,10.23
2023-03-06T21:33:11.728Z,14.63
2023-03-06T21:35:40.082Z,13.00
2023-03-06T21:38:09.551Z,11.27
2023-03-06T21:40:37.628Z,12.07
2023-03-06T21:43:05.709Z,13.57
2023-03-06T21:45:34.060Z,12.70
2023-03-06T21:48:02.141Z,9.27
2023-03-06T21:50:31.946Z,10.20
2023-03-06T21:53:00.112Z,10.70
2023-03-06T21:55:29.706Z,11.90
2023-03-06T21:57:57.840Z,8.87
2023-03-06T22:00:25.958Z,9.30
2023-03-06T22:02:54.389Z,9.10
2023-03-06T22:05:22.309Z,11.27
2023-03-06T22:07:50.766Z,10.73
2023-03-06T22:10:18.772Z,11.87
2023-03-06T22:12:48.213Z,10.80
2023-03-06T22:15:16.163Z,12.30
2023-03-06T22:17:44.072Z,16.50
2023-03-06T22:20:13.291Z,9.20
2023-03-06T22:22:41.207Z,12.47
2023-03-06T22:25:09.655Z,9.97
2023-03-06T22:27:37.585Z,12.13
2023-03-06T22:30:07.652Z,8.80
2023-03-06T22:32:35.980Z,9.47
2023-03-06T22:35:04.016Z,13.80
2023-03-06T22:37:32.524Z,8.97
2023-03-06T22:40:00.395Z,10.77
2023-03-06T22:42:28.811Z,10.87
2023-03-06T22:44:56.752Z,12.40
2023-03-06T22:47:26.157Z,9.13
2023-03-06T22:49:54.086Z,9.83
2023-03-06T22:52:22.050Z,11.13
2023-03-06T22:54:50.026Z,11.93
2023-03-06T22:57:18.126Z,11.00
2023-03-06T22:59:46.068Z,10.10
2023-03-06T23:02:13.989Z,12.33
2023-03-06T23:04:43.440Z,13.63
2023-03-06T23:07:11.433Z,11.77
2023-03-06T23:09:39.356Z,11.87
2023-03-06T23:12:09.178Z,9.63
2023-03-06T23:14:37.180Z,13.93
2023-03-06T23:17:05.178Z,10.10
2023-03-06T23:19:33.113Z,11.33
2023-03-06T23:22:02.568Z,12.83
2023-03-06T23:24:30.492Z,11.43
2023-03-06T23:26:59.583Z,11.43
2023-03-06T23:29:27.511Z,8.90
2023-03-06T23:31:55.448Z,9.50
2023-03-06T23:34:23.776Z,8.80
2023-03-06T23:36:51.681Z,10.53
2023-03-06T23:39:21.063Z,12.03
2023-03-06T23:41:48.951Z,8.53
2023-03-06T23:44:16.934Z,9.97
2023-03-06T23:46:44.942Z,8.67
2023-03-06T23:49:12.859Z,9.37
2023-03-06T23:51:40.804Z,12.93
2023-03-06T23:54:08.801Z,9.53
2023-03-06T23:56:38.145Z,8.67
2023-03-06T23:59:06.171Z,10.50
